Time;durP1;ratioP1;P1;durP2;ratioP2;P2;SDS_P1;SDS_P2;PMS_P1;PMS_P2;Temp;Humidity;BMP_temperature;BMP_pressure;BME280_temperature;BME280_humidity;BME280_pressure;Samples;Min_cycle;Max_cycle;Signal;HPM_P1;HPM_P2
2022/04/22 00:00:08;;;;;;;13.10;5.93;;;11.40;99.90;;;;;;4986184;28;20161;-73
2022/04/22 00:02:35;;;;;;;15.32;6.57;;;11.30;99.90;;;;;;4958141;28;20149;-75
2022/04/22 00:05:01;;;;;;;;;;;11.30;99.90;;;;;;4990771;28;20054;-74
2022/04/22 00:07:28;;;;;;;11.40;6.25;;;11.30;99.90;;;;;;4989596;28;19942;-74
2022/04/22 00:09:54;;;;;;;13.32;6.45;;;11.20;99.90;;;;;;4989691;28;20061;-73
2022/04/22 00:12:20;;;;;;;13.43;6.93;;;11.20;99.90;;;;;;4973802;28;20054;-76
2022/04/22 00:14:46;;;;;;;13.60;6.93;;;11.20;99.90;;;;;;4989145;28;20054;-76
2022/04/22 00:17:11;;;;;;;11.50;6.70;;;11.20;99.90;;;;;;4989880;28;20054;-75
2022/04/22 00:19:37;;;;;;;13.30;6.95;;;11.20;99.90;;;;;;4974051;28;20050;-78
2022/04/22 00:22:03;;;;;;;15.45;6.55;;;11.10;99.90;;;;;;4989405;28;20042;-76
2022/04/22 00:24:29;;;;;;;13.55;6.45;;;11.10;99.90;;;;;;4989940;28;20044;-76
2022/04/22 00:26:54;;;;;;;19.83;6.63;;;11.10;99.90;;;;;;4988712;28;20054;-76
2022/04/22 00:29:20;;;;;;;17.48;7.20;;;11.10;99.90;;;;;;4988971;28;20073;-76
2022/04/22 00:31:46;;;;;;;15.38;6.75;;;11.10;99.90;;;;;;4973019;28;20054;-76
2022/04/22 00:34:11;;;;;;;14.90;6.97;;;11.00;99.90;;;;;;4973739;28;20058;-76
2022/04/22 00:36:37;;;;;;;13.63;6.55;;;11.00;99.90;;;;;;4973373;28;20050;-78
2022/04/22 00:39:03;;;;;;;16.42;6.70;;;11.00;99.90;;;;;;4973170;28;20132;-76
2022/04/22 00:41:29;;;;;;;16.73;7.15;;;10.90;99.90;;;;;;4957756;28;20520;-76
2022/04/22 00:43:55;;;;;;;13.85;7.25;;;10.90;99.90;;;;;;4989025;28;20054;-76
2022/04/22 00:46:21;;;;;;;13.50;7.20;;;10.90;99.90;;;;;;4988586;28;20089;-76
2022/04/22 00:48:47;;;;;;;14.55;6.93;;;10.90;99.90;;;;;;4988885;28;20141;-76
2022/04/22 00:51:13;;;;;;;;;;;10.80;99.90;;;;;;4990306;28;20050;-76
2022/04/22 00:53:41;;;;;;;16.33;6.75;;;10.70;99.90;;;;;;4972697;28;20441;-78
2022/04/22 00:56:10;;;;;;;18.95;7.60;;;10.70;99.90;;;;;;4990497;28;20400;-76
2022/04/22 00:58:39;;;;;;;17.27;7.68;;;10.60;99.90;;;;;;4977435;28;20054;-76
2022/04/22 01:01:05;;;;;;;15.30;8.48;;;10.50;99.90;;;;;;4995916;28;20144;-76
2022/04/22 01:03:31;;;;;;;16.10;7.95;;;10.50;99.90;;;;;;5014430;28;20042;-76
2022/04/22 01:11:31;;;;;;;20.02;8.30;;;10.30;99.90;;;;;;4977639;28;20141;-76
2022/04/22 01:14:00;;;;;;;21.08;8.75;;;10.30;99.90;;;;;;4980782;28;20093;-76
2022/04/22 01:16:26;;;;;;;19.67;8.68;;;10.20;99.90;;;;;;4996103;28;20410;-76
2022/04/22 01:18:52;;;;;;;18.88;8.70;;;10.20;99.90;;;;;;4979436;28;20050;-76
2022/04/22 01:21:18;;;;;;;19.10;8.95;;;10.10;99.90;;;;;;4980581;28;20090;-76
2022/04/22 01:23:44;;;;;;;19.35;8.48;;;10.10;99.90;;;;;;4979487;28;20054;-76
2022/04/22 01:26:13;;;;;;;20.85;9.23;;;10.10;99.90;;;;;;4996810;28;20119;-76
2022/04/22 01:28:39;;;;;;;20.75;9.02;;;10.00;99.90;;;;;;5014031;28;20058;-76
2022/04/22 01:31:05;;;;;;;20.88;8.82;;;9.90;99.90;;;;;;4995034;28;20258;-76
2022/04/22 01:33:31;;;;;;;19.85;9.00;;;9.90;99.90;;;;;;4980632;28;20161;-76
2022/04/22 01:35:56;;;;;;;19.20;10.32;;;9.80;99.90;;;;;;4980032;28;20137;-76
2022/04/22 01:38:22;;;;;;;22.25;9.50;;;9.70;99.90;;;;;;4978450;28;20944;-76
2022/04/22 01:40:48;;;;;;;21.70;9.73;;;9.60;99.90;;;;;;4972167;28;20046;-76
2022/04/22 01:43:14;;;;;;;21.13;9.65;;;9.60;99.90;;;;;;4992988;28;20057;-76
2022/04/22 01:45:40;;;;;;;21.15;9.75;;;9.50;99.90;;;;;;4996762;28;20052;-76
2022/04/22 01:48:06;;;;;;;22.45;10.27;;;9.50;99.90;;;;;;4995295;28;20050;-76
2022/04/22 01:50:32;;;;;;;22.83;10.77;;;9.40;99.90;;;;;;4980060;28;20053;-76
2022/04/22 01:52:59;;;;;;;24.15;11.57;;;9.30;99.90;;;;;;4995221;28;20046;-76
2022/04/22 01:55:26;;;;;;;26.77;11.52;;;9.30;99.90;;;;;;4978907;28;20345;-76
2022/04/22 01:57:53;;;;;;;23.67;11.82;;;9.30;99.90;;;;;;4995796;28;20085;-76
2022/04/22 02:00:19;;;;;;;30.83;11.48;;;9.30;99.90;;;;;;4980044;28;20058;-76
2022/04/22 02:02:44;;;;;;;23.40;11.57;;;9.30;99.90;;;;;;4995924;28;20053;-77
2022/04/22 02:05:10;;;;;;;28.88;11.88;;;9.30;99.90;;;;;;4995581;28;20121;-76
2022/04/22 02:07:36;;;;;;;22.60;11.40;;;9.10;99.90;;;;;;4996195;28;20049;-76
2022/04/22 02:10:02;;;;;;;21.70;11.02;;;9.30;99.90;;;;;;4994952;28;20050;-76
2022/04/22 02:12:28;;;;;;;24.30;10.75;;;9.20;99.90;;;;;;4978854;28;20053;-76
2022/04/22 02:14:53;;;;;;;23.42;10.98;;;9.20;99.90;;;;;;4995781;28;20052;-76
2022/04/22 02:17:19;;;;;;;25.60;10.98;;;9.20;99.90;;;;;;4996271;28;20498;-76
2022/04/22 02:19:45;;;;;;;24.05;11.05;;;9.20;99.90;;;;;;4995930;28;20061;-76
2022/04/22 02:22:11;;;;;;;23.00;10.45;;;9.30;99.90;;;;;;4995040;28;20053;-76
2022/04/22 02:24:36;;;;;;;29.27;11.30;;;9.10;99.90;;;;;;4996094;28;20509;-76
2022/04/22 02:29:47;;;;;;;22.95;11.07;;;9.10;99.90;;;;;;4982021;28;20072;-77
2022/04/22 02:32:12;;;;;;;28.00;11.50;;;9.00;99.90;;;;;;4994941;28;20053;-76
2022/04/22 02:34:38;;;;;;;24.60;10.00;;;9.00;99.90;;;;;;4995603;28;20100;-76
2022/04/22 02:37:04;;;;;;;23.92;10.73;;;9.00;99.90;;;;;;4974954;28;20561;-76
2022/04/22 02:39:30;;;;;;;22.17;10.82;;;8.90;99.90;;;;;;4976357;28;20050;-76
2022/04/22 02:47:23;;;;;;;23.98;10.48;;;8.90;99.90;;;;;;4976002;28;20101;-76
2022/04/22 02:49:49;;;;;;;24.35;10.35;;;8.80;99.90;;;;;;4976159;28;20092;-77
2022/04/22 02:52:15;;;;;;;20.23;9.60;;;8.70;99.90;;;;;;4991392;28;20050;-76
2022/04/22 02:54:42;;;;;;;27.83;10.43;;;8.70;99.90;;;;;;4960151;28;20066;-76
2022/04/22 02:57:08;;;;;;;;;;;8.70;99.90;;;;;;4974184;28;20141;-77
2022/04/22 02:59:35;;;;;;;19.42;10.25;;;8.70;99.90;;;;;;4994946;28;20131;-76
2022/04/22 03:02:01;;;;;;;18.30;9.10;;;8.70;99.90;;;;;;4978455;28;20144;-75
2022/04/22 03:04:27;;;;;;;21.95;9.63;;;8.70;99.90;;;;;;4979145;28;20181;-76
2022/04/22 03:06:56;;;;;;;24.38;10.10;;;8.70;99.90;;;;;;4978019;28;20402;-78
2022/04/22 03:09:22;;;;;;;26.75;10.82;;;8.70;99.90;;;;;;4995289;28;20128;-76
2022/04/22 03:11:48;;;;;;;21.92;10.20;;;8.70;99.90;;;;;;4977210;28;20049;-76
2022/04/22 03:14:14;;;;;;;24.10;9.98;;;8.70;99.90;;;;;;4978423;28;20056;-76
2022/04/22 03:16:42;;;;;;;24.38;10.25;;;8.70;99.90;;;;;;4995222;28;20045;-76
2022/04/22 03:19:08;;;;;;;18.38;8.98;;;8.70;99.90;;;;;;4978442;28;20058;-76
2022/04/22 03:21:34;;;;;;;21.88;10.02;;;8.70;99.90;;;;;;4993536;28;20058;-75
2022/04/22 03:24:00;;;;;;;38.25;10.40;;;8.70;99.90;;;;;;4994547;28;20509;-76
2022/04/22 03:26:26;;;;;;;;;;;8.70;99.90;;;;;;4977491;28;20057;-76
2022/04/22 03:28:55;;;;;;;22.80;9.60;;;8.60;99.90;;;;;;4994925;28;19925;-76
2022/04/22 03:31:21;;;;;;;22.52;9.20;;;8.60;99.90;;;;;;4962869;28;20057;-76
2022/04/22 03:33:47;;;;;;;19.23;9.30;;;8.50;99.90;;;;;;4994905;28;20474;-76
2022/04/22 03:36:12;;;;;;;20.67;9.65;;;8.50;99.90;;;;;;4993870;28;20503;-76
2022/04/22 03:38:40;;;;;;;20.95;9.05;;;8.50;99.90;;;;;;4994711;28;20050;-76
2022/04/22 03:41:05;;;;;;;19.55;9.63;;;8.40;99.90;;;;;;4972756;28;20046;-76
2022/04/22 03:43:31;;;;;;;23.10;9.05;;;8.40;99.90;;;;;;4975270;28;20534;-76
2022/04/22 03:45:58;;;;;;;20.73;8.55;;;8.30;99.90;;;;;;4979636;28;20080;-78
2022/04/22 03:48:24;;;;;;;20.42;9.50;;;8.30;99.90;;;;;;4994559;28;20053;-76
2022/04/22 03:50:49;;;;;;;16.38;8.10;;;8.20;99.90;;;;;;4993870;28;20124;-76
2022/04/22 03:53:15;;;;;;;17.15;8.98;;;8.20;99.90;;;;;;4974198;28;20077;-76
2022/04/22 03:55:43;;;;;;;18.75;8.07;;;8.20;99.90;;;;;;4973141;28;20054;-76
2022/04/22 03:58:12;;;;;;;18.45;8.98;;;8.20;99.90;;;;;;4991190;28;20089;-76
2022/04/22 04:00:44;;;;;;;13.35;7.82;;;8.10;99.90;;;;;;4993398;28;20065;-76
2022/04/22 04:03:15;;;;;;;14.98;7.80;;;8.10;99.90;;;;;;4992599;28;20061;-76
2022/04/22 04:05:47;;;;;;;17.27;8.10;;;8.10;99.90;;;;;;4993162;28;20125;-76
2022/04/22 04:08:14;;;;;;;20.40;8.38;;;8.00;99.90;;;;;;4993391;28;20487;-76
2022/04/22 04:16:08;;;;;;;16.60;6.78;;;8.00;99.90;;;;;;4979876;28;20065;-76
2022/04/22 04:18:37;;;;;;;15.02;6.60;;;8.00;99.90;;;;;;4994102;28;20058;-76
2022/04/22 04:23:49;;;;;;;14.80;6.05;;;8.10;99.90;;;;;;4993754;28;20056;-76
2022/04/22 04:26:15;;;;;;;;;;;8.10;99.90;;;;;;4991818;28;20081;-76
2022/04/22 04:28:42;;;;;;;12.60;5.25;;;8.10;99.90;;;;;;4961148;28;19929;-76
2022/04/22 04:31:11;;;;;;;13.40;5.70;;;8.10;99.90;;;;;;4976560;28;20050;-76
2022/04/22 04:33:37;;;;;;;12.38;5.72;;;8.10;99.90;;;;;;4993343;28;20046;-75
2022/04/22 04:36:04;;;;;;;15.98;5.72;;;8.10;99.90;;;;;;4976706;28;20053;-78
2022/04/22 04:38:30;;;;;;;11.63;5.65;;;8.00;99.90;;;;;;4993777;28;20058;-76
2022/04/22 04:40:56;;;;;;;;;;;8.00;99.90;;;;;;4992233;28;20614;-76
2022/04/22 04:43:22;;;;;;;12.98;4.78;;;8.10;99.90;;;;;;4993127;28;20036;-76
2022/04/22 04:45:51;;;;;;;12.13;5.03;;;8.20;99.90;;;;;;4993364;28;20053;-76
2022/04/22 04:48:18;;;;;;;11.10;5.38;;;8.10;99.90;;;;;;4993111;28;20058;-76
2022/04/22 04:50:44;;;;;;;;;;;8.10;99.90;;;;;;4993588;28;20046;-76
2022/04/22 04:53:11;;;;;;;10.90;4.90;;;8.10;99.90;;;;;;4992698;28;19922;-76
2022/04/22 04:55:37;;;;;;;12.23;5.30;;;8.10;99.90;;;;;;4991767;28;20089;-76
2022/04/22 04:58:04;;;;;;;10.88;5.10;;;8.10;99.90;;;;;;4993609;28;20053;-76
2022/04/22 05:00:30;;;;;;;12.50;4.97;;;8.20;99.90;;;;;;4960315;28;20069;-76
2022/04/22 05:02:55;;;;;;;10.30;5.07;;;8.20;99.90;;;;;;4993282;28;20406;-76
2022/04/22 05:05:21;;;;;;;12.30;4.80;;;8.20;99.90;;;;;;4960245;28;20108;-76
2022/04/22 05:07:51;;;;;;;11.02;5.50;;;8.20;99.90;;;;;;4993425;28;20046;-76
2022/04/22 05:10:18;;;;;;;11.95;5.25;;;8.20;99.90;;;;;;4990284;28;20582;-76
2022/04/22 05:12:50;;;;;;;13.02;5.50;;;8.20;99.90;;;;;;4993038;28;20053;-76
2022/04/22 05:15:17;;;;;;;13.35;5.05;;;8.20;99.90;;;;;;4992841;28;20050;-76
2022/04/22 05:17:45;;;;;;;11.70;5.72;;;8.30;99.90;;;;;;4977152;28;20107;-76
2022/04/22 05:20:12;;;;;;;10.23;4.82;;;8.30;99.90;;;;;;4992349;28;20057;-77
2022/04/22 05:22:39;;;;;;;12.95;5.93;;;8.40;99.90;;;;;;4993424;28;20562;-76
2022/04/22 05:25:07;;;;;;;11.57;5.03;;;8.40;99.90;;;;;;4992646;28;20176;-77
2022/04/22 05:27:34;;;;;;;10.70;4.85;;;8.40;99.90;;;;;;4975794;28;20061;-76
2022/04/22 05:32:47;;;;;;;11.48;5.18;;;8.60;99.90;;;;;;4979595;28;20058;-76
2022/04/22 05:35:18;;;;;;;8.32;4.05;;;8.60;99.90;;;;;;4991780;28;20727;-76
2022/04/22 05:37:53;;;;;;;12.75;4.40;;;8.70;99.90;;;;;;4973627;28;20488;-76
2022/04/22 05:40:21;;;;;;;13.43;4.95;;;8.80;99.90;;;;;;4971938;28;20096;-76
2022/04/22 05:42:48;;;;;;;12.95;4.90;;;8.80;99.90;;;;;;4993492;28;20049;-76
2022/04/22 05:45:16;;;;;;;10.25;4.10;;;8.90;99.90;;;;;;4996266;28;20108;-76
2022/04/22 05:47:42;;;;;;;10.20;4.47;;;8.90;99.90;;;;;;4996414;28;20057;-75
2022/04/22 05:50:10;;;;;;;11.73;4.60;;;9.00;99.90;;;;;;4980139;28;20482;-76
2022/04/22 05:52:38;;;;;;;7.78;4.10;;;9.00;99.90;;;;;;5012443;28;20057;-76
2022/04/22 05:55:07;;;;;;;10.52;3.90;;;9.20;99.90;;;;;;4996012;28;20060;-78
2022/04/22 05:57:33;;;;;;;10.93;4.22;;;9.10;99.90;;;;;;4994559;28;20782;-76
2022/04/22 06:00:00;;;;;;;9.48;4.03;;;9.10;99.90;;;;;;4979750;28;20056;-77
2022/04/22 06:02:26;;;;;;;13.27;4.38;;;9.10;99.90;;;;;;4995557;28;20407;-77
2022/04/22 06:04:53;;;;;;;7.57;4.07;;;9.10;99.90;;;;;;4980332;28;20052;-77
2022/04/22 06:07:18;;;;;;;;;;;9.10;99.90;;;;;;4995420;28;20085;-77
2022/04/22 06:12:29;;;;;;;9.90;4.35;;;9.00;99.90;;;;;;4994827;28;20066;-77
2022/04/22 06:14:59;;;;;;;8.85;4.00;;;9.00;99.90;;;;;;4980082;28;20410;-77
2022/04/22 06:17:26;;;;;;;10.50;4.05;;;9.00;99.90;;;;;;4995374;28;20054;-77
2022/04/22 06:19:52;;;;;;;8.98;4.20;;;9.00;99.90;;;;;;4996052;28;20050;-77
2022/04/22 06:22:18;;;;;;;9.50;4.53;;;9.00;99.90;;;;;;4994912;28;20053;-77
2022/04/22 06:24:43;;;;;;;10.20;4.85;;;9.00;99.90;;;;;;4979684;28;20564;-77
2022/04/22 06:27:09;;;;;;;12.70;4.50;;;9.10;99.90;;;;;;4993933;28;20399;-76
2022/04/22 06:29:36;;;;;;;9.32;4.15;;;9.10;99.90;;;;;;5012846;28;20264;-77
2022/04/22 06:32:02;;;;;;;9.95;4.00;;;9.10;99.90;;;;;;4995600;28;20553;-78
2022/04/22 06:34:28;;;;;;;10.32;4.25;;;9.10;99.90;;;;;;4995327;28;20045;-78
2022/04/22 06:36:54;;;;;;;10.35;4.50;;;9.10;99.90;;;;;;4995457;28;20073;-80
2022/04/22 06:39:20;;;;;;;9.82;4.13;;;9.10;99.90;;;;;;4994730;28;20093;-76
2022/04/22 06:47:15;;;;;;;11.88;4.25;;;9.20;99.90;;;;;;4992175;28;20136;-75
2022/04/22 06:49:41;;;;;;;9.13;4.20;;;9.30;99.90;;;;;;4959440;28;20050;-76
2022/04/22 06:52:08;;;;;;;10.50;4.60;;;9.30;99.90;;;;;;4984996;28;20058;-76
2022/04/22 06:54:34;;;;;;;12.30;4.70;;;9.30;99.90;;;;;;4994084;28;20505;-76
2022/04/22 06:57:00;;;;;;;10.38;4.00;;;9.40;99.90;;;;;;4985775;28;20050;-76
2022/04/22 06:59:26;;;;;;;8.18;3.85;;;9.40;99.90;;;;;;4959221;28;20415;-76
2022/04/22 07:01:52;;;;;;;;;;;9.40;99.90;;;;;;4945274;28;20141;-76
2022/04/22 07:04:19;;;;;;;9.45;4.20;;;9.40;99.90;;;;;;4994957;28;20386;-77
2022/04/22 07:06:45;;;;;;;8.68;4.20;;;9.50;99.90;;;;;;4977742;28;20056;-76
2022/04/22 07:09:11;;;;;;;7.65;4.20;;;9.50;99.90;;;;;;4977727;28;20042;-76
2022/04/22 07:11:42;;;;;;;10.00;4.10;;;9.50;99.90;;;;;;4960395;28;20081;-76
2022/04/22 07:14:08;;;;;;;8.80;4.00;;;9.60;99.90;;;;;;4995285;28;20041;-76
2022/04/22 07:16:34;;;;;;;9.20;4.10;;;9.60;99.90;;;;;;4994400;28;20050;-77
2022/04/22 07:19:00;;;;;;;9.68;4.35;;;9.70;99.90;;;;;;4995190;28;20050;-75
2022/04/22 07:21:26;;;;;;;7.93;3.97;;;9.70;99.90;;;;;;4993899;28;20054;-76
2022/04/22 07:23:53;;;;;;;;;;;9.80;99.90;;;;;;4958959;28;20045;-76
2022/04/22 07:26:21;;;;;;;11.65;4.68;;;9.80;99.90;;;;;;4992694;28;20535;-77
2022/04/22 07:28:48;;;;;;;9.07;4.60;;;9.90;99.90;;;;;;4994970;28;20085;-75
2022/04/22 07:31:18;;;;;;;10.65;4.50;;;9.90;99.90;;;;;;4994787;28;20050;-76
2022/04/22 07:33:44;;;;;;;11.13;4.70;;;10.00;99.90;;;;;;4994103;28;20050;-75
2022/04/22 07:36:10;;;;;;;7.60;4.43;;;10.00;99.90;;;;;;4994310;28;20100;-76
2022/04/22 07:38:36;;;;;;;7.70;4.15;;;10.10;99.90;;;;;;4993948;28;20406;-76
2022/04/22 07:41:02;;;;;;;10.50;4.60;;;10.10;99.90;;;;;;4991931;28;20057;-76
2022/04/22 07:48:57;;;;;;;9.45;3.97;;;10.20;99.90;;;;;;4992951;28;20471;-76
2022/04/22 07:51:26;;;;;;;10.68;4.35;;;10.20;99.90;;;;;;4974158;28;20050;-77
2022/04/22 07:53:55;;;;;;;7.03;4.28;;;10.30;99.90;;;;;;4991323;28;20053;-76
2022/04/22 07:56:21;;;;;;;8.25;3.80;;;10.30;99.90;;;;;;4990573;28;20424;-76
2022/04/22 07:58:47;;;;;;;11.63;4.35;;;10.30;99.90;;;;;;4991467;28;20060;-76
2022/04/22 08:01:13;;;;;;;12.43;4.22;;;10.40;99.90;;;;;;4976468;28;20125;-76
2022/04/22 08:03:38;;;;;;;9.45;4.10;;;10.40;99.90;;;;;;4992134;28;20124;-78
2022/04/22 08:06:06;;;;;;;10.65;4.28;;;10.40;99.90;;;;;;4975432;28;20046;-78
2022/04/22 08:08:32;;;;;;;9.52;4.38;;;10.50;99.90;;;;;;4991663;28;20496;-76
2022/04/22 08:10:58;;;;;;;15.02;4.25;;;10.60;99.90;;;;;;4990552;28;20050;-76
2022/04/22 08:13:26;;;;;;;9.05;3.90;;;10.70;99.90;;;;;;4991396;28;20681;-78
2022/04/22 08:15:52;;;;;;;9.50;3.88;;;10.70;99.90;;;;;;4992182;28;20084;-76
2022/04/22 08:18:18;;;;;;;8.25;3.40;;;10.80;99.90;;;;;;4991424;28;20137;-76
2022/04/22 08:20:44;;;;;;;7.15;3.80;;;10.90;99.90;;;;;;4991987;28;20152;-77
2022/04/22 08:23:11;;;;;;;8.35;3.50;;;10.90;99.90;;;;;;4977093;28;20141;-76
2022/04/22 08:25:37;;;;;;;10.75;3.60;;;11.00;99.90;;;;;;4974225;28;20056;-76
2022/04/22 08:28:03;;;;;;;;;;;11.10;99.90;;;;;;4994101;28;20112;-77
2022/04/22 08:30:29;;;;;;;10.40;2.92;;;11.20;99.90;;;;;;4993059;28;20271;-77
2022/04/22 08:32:56;;;;;;;9.80;3.17;;;11.30;99.90;;;;;;4993384;28;20803;-77
2022/04/22 08:35:21;;;;;;;8.57;3.50;;;11.30;99.90;;;;;;4993208;28;20562;-78
2022/04/22 08:37:47;;;;;;;7.50;3.38;;;11.40;99.90;;;;;;4991259;28;20107;-76
2022/04/22 08:40:14;;;;;;;9.40;2.70;;;11.50;99.90;;;;;;5008927;28;20048;-77
2022/04/22 08:42:41;;;;;;;6.75;3.00;;;11.60;99.90;;;;;;4991703;28;20053;-76
2022/04/22 08:45:08;;;;;;;7.30;2.83;;;11.70;99.90;;;;;;4976700;28;20061;-76
2022/04/22 08:50:21;;;;;;;8.40;2.90;;;11.80;99.90;;;;;;4991269;28;20049;-76
2022/04/22 08:53:04;;;;;;;5.15;2.83;;;11.80;99.90;;;;;;4991188;28;20494;-76
2022/04/22 08:55:32;;;;;;;8.10;3.20;;;11.90;99.90;;;;;;5001863;28;20050;-78
2022/04/22 08:57:58;;;;;;;6.05;3.13;;;12.00;99.90;;;;;;4992278;28;20050;-77
2022/04/22 09:00:27;;;;;;;6.70;2.72;;;12.10;99.90;;;;;;4990988;28;20062;-73
2022/04/22 09:02:57;;;;;;;9.95;2.72;;;12.20;99.90;;;;;;4989494;28;20115;-74
2022/04/22 09:05:26;;;;;;;7.07;3.15;;;12.20;99.90;;;;;;4992104;28;20058;-73
2022/04/22 09:07:53;;;;;;;7.75;2.90;;;12.30;99.90;;;;;;5010283;28;20080;-74
2022/04/22 09:10:20;;;;;;;8.23;2.30;;;12.40;99.90;;;;;;4991001;28;20058;-75
2022/04/22 09:12:54;;;;;;;9.93;3.08;;;12.50;99.90;;;;;;4992164;28;20696;-74
2022/04/22 09:15:27;;;;;;;8.70;3.20;;;12.50;99.90;;;;;;4993098;28;20093;-75
2022/04/22 09:17:57;;;;;;;7.70;2.83;;;12.60;99.90;;;;;;4977190;28;20065;-75
2022/04/22 09:20:31;;;;;;;14.10;3.28;;;12.70;99.90;;;;;;4996311;28;20069;-76
2022/04/22 09:22:57;;;;;;;7.72;2.78;;;12.70;99.90;;;;;;4996674;28;20050;-76
2022/04/22 09:25:25;;;;;;;4.50;2.55;;;12.80;99.90;;;;;;4963063;28;20050;-77
2022/04/22 09:27:51;;;;;;;7.60;2.50;;;12.90;99.90;;;;;;4996599;28;20053;-75
2022/04/22 09:30:17;;;;;;;7.82;2.65;;;13.00;99.90;;;;;;4996881;28;20045;-76
2022/04/22 09:32:44;;;;;;;9.48;3.00;;;13.10;99.80;;;;;;4996169;28;20491;-76
2022/04/22 09:35:16;;;;;;;7.68;2.58;;;13.10;99.80;;;;;;4996569;28;20104;-76
2022/04/22 09:43:45;;;;;;;5.53;2.65;;;13.40;99.80;;;;;;4996939;28;20711;-75
2022/04/22 09:46:23;;;;;;;6.60;3.05;;;13.50;98.80;;;;;;4996716;28;20135;-75
2022/04/22 09:48:49;;;;;;;7.78;2.65;;;13.50;96.60;;;;;;4995918;28;20144;-76
2022/04/22 09:51:31;;;;;;;7.80;2.55;;;13.60;96.90;;;;;;4996003;28;20053;-75
2022/04/22 09:54:10;;;;;;;12.27;2.92;;;13.70;96.40;;;;;;4996231;28;20061;-75
2022/04/22 09:56:38;;;;;;;6.18;2.58;;;13.80;96.20;;;;;;4994963;28;20057;-76
2022/04/22 09:59:22;;;;;;;5.88;2.80;;;13.80;97.00;;;;;;4980072;28;20093;-76
2022/04/22 10:01:49;;;;;;;6.03;2.70;;;13.90;96.10;;;;;;4995851;28;20093;-75
2022/04/22 10:04:17;;;;;;;5.65;2.67;;;14.00;95.70;;;;;;4979816;28;20176;-76
2022/04/22 10:06:44;;;;;;;8.10;2.80;;;14.00;95.40;;;;;;4995250;28;20139;-76
2022/04/22 10:09:11;;;;;;;7.95;3.00;;;14.10;95.10;;;;;;4996523;28;20050;-76
2022/04/22 10:11:39;;;;;;;7.47;3.15;;;14.20;95.30;;;;;;4994407;28;20057;-76
2022/04/22 10:14:11;;;;;;;6.82;2.85;;;14.20;94.50;;;;;;4995839;28;20060;-74
2022/04/22 10:16:38;;;;;;;10.52;3.17;;;14.40;94.90;;;;;;4996264;28;20060;-74
2022/04/22 10:19:08;;;;;;;12.98;3.00;;;14.40;95.50;;;;;;4995710;28;20048;-74
2022/04/22 10:21:34;;;;;;;5.90;2.47;;;14.50;95.50;;;;;;4979473;28;20056;-73
2022/04/22 10:24:00;;;;;;;11.48;3.40;;;14.60;94.40;;;;;;4979409;28;20054;-74
2022/04/22 10:26:26;;;;;;;9.02;3.05;;;14.70;90.60;;;;;;4994238;28;20380;-74
2022/04/22 10:28:54;;;;;;;8.38;3.17;;;14.70;90.10;;;;;;4994569;28;20060;-74
2022/04/22 10:31:22;;;;;;;7.60;3.38;;;14.80;90.20;;;;;;4994846;28;20120;-74
2022/04/22 10:33:48;;;;;;;8.52;3.53;;;14.80;91.50;;;;;;4994919;28;20050;-73
2022/04/22 10:36:18;;;;;;;;;;;14.90;90.50;;;;;;4995446;28;20561;-74
2022/04/22 10:38:47;;;;;;;5.45;3.00;;;15.00;93.00;;;;;;5012882;28;19925;-75
2022/04/22 10:41:17;;;;;;;8.52;3.42;;;15.10;91.50;;;;;;4990105;28;20407;-73
2022/04/22 10:47:13;;;;;;;6.72;3.45;;;15.30;91.90;;;;;;4976165;28;20046;-75
2022/04/22 10:49:16;;;;;;;9.13;3.53;;;15.40;90.50;;;;;;4976173;28;20069;-74
2022/04/22 10:51:59;;;;;;;8.18;3.33;;;15.50;90.80;;;;;;4997833;28;20042;-74
2022/04/22 10:54:52;;;;;;;7.32;3.35;;;15.50;91.70;;;;;;4979638;28;20061;-74
2022/04/22 10:57:29;;;;;;;7.80;3.45;;;15.60;90.30;;;;;;4993841;28;20045;-74
2022/04/22 11:00:08;;;;;;;5.70;2.88;;;15.70;88.70;;;;;;4988069;28;20070;-76
2022/04/22 11:02:40;;;;;;;6.38;3.33;;;15.90;83.70;;;;;;4984237;28;20065;-77
2022/04/22 11:07:58;;;;;;;7.70;2.95;;;16.00;86.50;;;;;;4991568;28;20068;-76
2022/04/22 11:10:48;;;;;;;9.77;3.55;;;16.20;86.90;;;;;;4989573;28;20407;-76
2022/04/22 11:13:29;;;;;;;7.72;3.30;;;16.30;82.60;;;;;;4991370;28;20498;-75
2022/04/22 11:15:58;;;;;;;6.90;3.70;;;16.30;80.80;;;;;;4990802;28;20133;-75
2022/04/22 11:18:26;;;;;;;9.27;3.67;;;16.40;81.50;;;;;;4991284;28;20053;-75
2022/04/22 11:20:53;;;;;;;6.22;3.13;;;16.50;83.20;;;;;;4990183;28;20453;-76
2022/04/22 11:23:18;;;;;;;7.57;3.15;;;16.70;82.20;;;;;;4990915;28;20077;-74
2022/04/22 11:25:46;;;;;;;7.13;3.50;;;16.80;79.80;;;;;;4988804;28;20077;-75
2022/04/22 11:28:13;;;;;;;11.63;3.63;;;16.90;77.50;;;;;;4988380;28;20503;-75
2022/04/22 11:30:39;;;;;;;7.80;3.25;;;17.00;75.40;;;;;;4990947;28;20491;-75
2022/04/22 11:33:25;;;;;;;7.50;3.65;;;17.10;76.50;;;;;;4990474;28;20050;-75
2022/04/22 11:35:59;;;;;;;9.73;3.80;;;17.30;73.40;;;;;;4989687;28;20053;-77
2022/04/22 11:38:25;;;;;;;10.07;3.63;;;17.40;74.10;;;;;;4990645;28;20503;-75
2022/04/22 11:40:50;;;;;;;9.73;3.25;;;17.50;74.20;;;;;;4989691;28;20062;-77
2022/04/22 11:43:21;;;;;;;7.05;3.42;;;17.60;72.80;;;;;;4990644;28;20047;-76
2022/04/22 11:45:50;;;;;;;8.75;3.72;;;17.80;72.40;;;;;;4991247;28;20124;-75
2022/04/22 11:48:21;;;;;;;8.23;3.38;;;18.10;70.60;;;;;;4974637;28;20061;-75
2022/04/22 11:50:47;;;;;;;7.97;3.28;;;18.20;71.00;;;;;;4990842;28;20479;-76
2022/04/22 11:53:14;;;;;;;9.00;3.92;;;18.40;71.00;;;;;;4973909;28;20078;-77
2022/04/22 11:55:42;;;;;;;9.13;3.88;;;18.60;69.80;;;;;;4988523;28;20088;-76
2022/04/22 11:58:12;;;;;;;9.57;3.85;;;18.60;66.80;;;;;;4983415;28;20050;-76
2022/04/22 12:06:13;;;;;;;10.35;4.00;;;18.60;67.70;;;;;;4989539;28;20101;-76
2022/04/22 12:08:53;;;;;;;10.38;4.00;;;18.50;65.80;;;;;;4974768;28;20057;-76
2022/04/22 12:11:19;;;;;;;9.52;3.92;;;18.30;65.60;;;;;;4972745;28;20558;-76
2022/04/22 12:13:49;;;;;;;13.23;4.53;;;18.20;66.70;;;;;;4990397;28;20054;-76
2022/04/22 12:16:19;;;;;;;9.25;4.15;;;18.10;66.30;;;;;;4971758;28;20099;-76
2022/04/22 12:18:56;;;;;;;8.75;3.85;;;18.30;68.60;;;;;;4990254;28;20149;-76
2022/04/22 12:21:23;;;;;;;10.73;4.28;;;18.90;68.80;;;;;;4973860;28;20054;-73
2022/04/22 12:23:59;;;;;;;12.32;4.13;;;19.50;69.60;;;;;;4973427;28;20050;-73
2022/04/22 12:26:27;;;;;;;13.05;4.38;;;19.90;65.00;;;;;;4972949;28;20050;-73
2022/04/22 12:29:10;;;;;;;9.55;4.88;;;20.10;65.50;;;;;;4985768;28;20085;-73
2022/04/22 12:31:47;;;;;;;9.73;4.30;;;20.40;66.60;;;;;;4987186;28;20054;-73
2022/04/22 12:34:15;;;;;;;8.63;3.90;;;20.70;61.10;;;;;;4982092;28;20050;-73
2022/04/22 12:36:52;;;;;;;14.60;4.43;;;20.80;62.20;;;;;;4970205;28;20426;-74
2022/04/22 12:39:42;;;;;;;13.02;4.75;;;20.50;60.40;;;;;;4970188;28;20061;-74
2022/04/22 12:42:17;;;;;;;11.05;4.45;;;20.30;61.00;;;;;;4975489;28;20192;-74
2022/04/22 12:53:33;;;;;;;9.75;4.68;;;21.10;62.20;;;;;;4913666;29;20051;-74
2022/04/22 12:56:03;;;;;;;11.02;4.65;;;21.20;59.50;;;;;;4971036;28;20514;-75
2022/04/22 12:58:29;;;;;;;16.08;4.85;;;21.10;58.70;;;;;;4989350;28;20050;-74
2022/04/22 13:00:55;;;;;;;8.98;4.63;;;21.20;59.30;;;;;;4973330;28;20526;-74
2022/04/22 13:03:24;;;;;;;12.00;4.75;;;21.30;57.70;;;;;;4973302;28;20103;-74
2022/04/22 13:05:50;;;;;;;9.55;4.78;;;21.40;58.40;;;;;;4988997;28;20081;-74
2022/04/22 13:08:17;;;;;;;11.88;5.43;;;21.70;57.10;;;;;;4973336;28;20086;-74
2022/04/22 13:10:43;;;;;;;12.80;4.43;;;22.00;57.30;;;;;;4971599;28;20053;-74
2022/04/22 13:13:10;;;;;;;10.13;4.60;;;22.20;57.00;;;;;;4989445;28;20129;-74
2022/04/22 13:15:35;;;;;;;9.20;4.80;;;22.20;56.10;;;;;;4989770;28;20053;-74
2022/04/22 13:18:01;;;;;;;9.05;5.10;;;21.90;54.60;;;;;;4973239;28;20093;-75
2022/04/22 13:20:27;;;;;;;12.63;5.10;;;21.30;53.70;;;;;;4989109;28;20043;-74
2022/04/22 13:22:52;;;;;;;10.15;4.65;;;20.70;55.00;;;;;;4989957;28;20129;-74
2022/04/22 13:25:19;;;;;;;;;;;20.20;55.70;;;;;;4987757;28;20046;-75
2022/04/22 13:27:46;;;;;;;12.37;4.87;;;20.00;56.80;;;;;;4988540;28;20016;-74
2022/04/22 13:30:14;;;;;;;21.42;5.13;;;19.90;56.70;;;;;;4971199;28;20050;-75
2022/04/22 13:32:40;;;;;;;9.35;4.93;;;20.10;57.40;;;;;;4987690;28;20183;-74
2022/04/22 13:35:07;;;;;;;12.82;4.63;;;20.70;57.50;;;;;;4986771;28;20054;-74
2022/04/22 13:37:33;;;;;;;11.05;4.57;;;21.20;57.20;;;;;;4955038;28;20554;-74
2022/04/22 13:39:59;;;;;;;14.57;4.60;;;21.70;56.20;;;;;;4986816;28;20057;-75
2022/04/22 13:42:25;;;;;;;10.52;4.30;;;22.10;55.90;;;;;;4984965;28;20152;-75
2022/04/22 13:53:04;;;;;;;8.48;4.28;;;23.20;52.40;;;;;;4987188;28;20081;-76
2022/04/22 13:55:30;;;;;;;10.15;4.22;;;23.50;51.90;;;;;;4985025;28;20062;-75
2022/04/22 13:57:57;;;;;;;10.80;4.20;;;23.80;51.00;;;;;;4987571;28;20535;-75
2022/04/22 14:00:23;;;;;;;11.77;4.80;;;24.10;52.10;;;;;;4969961;28;20086;-75
2022/04/22 14:02:49;;;;;;;12.07;3.88;;;24.00;50.70;;;;;;4986994;28;20097;-75
2022/04/22 14:05:21;;;;;;;7.72;3.80;;;23.30;49.90;;;;;;4972894;28;20043;-75